Time;durP1;ratioP1;P1;durP2;ratioP2;P2;SDS_P1;SDS_P2;PMS_P1;PMS_P2;Temp;Humidity;BMP_temperature;BMP_pressure;BME280_temperature;BME280_humidity;BME280_pressure;Samples;Min_cycle;Max_cycle;Signal;HPM_P1;HPM_P2
2023/10/18 00:01:57;;;;;;;20.90;9.88;;;5.50;99.90;;;;;;4959025;28;88439;-33
2023/10/18 00:04:23;;;;;;;14.98;9.25;;;5.50;99.90;;;;;;4960224;28;90537;-31
2023/10/18 00:06:54;;;;;;;15.40;9.70;;;5.40;99.90;;;;;;4959164;28;88608;-30
2023/10/18 00:12:07;;;;;;;16.33;11.27;;;5.30;99.90;;;;;;4959208;28;87739;-30
2023/10/18 00:14:34;;;;;;;16.73;10.05;;;5.30;99.90;;;;;;4957536;28;90660;-34
2023/10/18 00:17:00;;;;;;;18.35;10.32;;;5.20;99.90;;;;;;4958529;28;90601;-31
2023/10/18 00:19:26;;;;;;;18.60;12.55;;;5.20;99.90;;;;;;4957950;28;89591;-33
2023/10/18 00:21:52;;;;;;;24.88;11.95;;;5.10;99.90;;;;;;4958692;28;88026;-33
2023/10/18 00:24:18;;;;;;;22.60;12.80;;;5.10;99.90;;;;;;4958460;28;89051;-30
2023/10/18 00:26:45;;;;;;;19.75;10.32;;;5.10;99.90;;;;;;4960728;28;90284;-33
2023/10/18 00:29:10;;;;;;;23.70;12.73;;;5.10;99.90;;;;;;4945146;28;88299;-31
2023/10/18 00:31:37;;;;;;;20.63;12.35;;;5.10;99.90;;;;;;4962404;28;87554;-31
2023/10/18 00:34:06;;;;;;;21.77;15.20;;;5.20;99.90;;;;;;4961241;28;90434;-32
2023/10/18 00:36:33;;;;;;;19.17;11.93;;;5.20;99.90;;;;;;4961419;28;89992;-32
2023/10/18 00:38:59;;;;;;;22.93;12.17;;;5.20;99.90;;;;;;4961339;28;88001;-30
2023/10/18 00:41:37;;;;;;;24.75;12.70;;;5.20;99.90;;;;;;4962899;28;89259;-29
2023/10/18 00:44:11;;;;;;;30.10;14.40;;;5.10;99.90;;;;;;4961576;28;89894;-33
2023/10/18 00:46:39;;;;;;;21.17;11.65;;;5.20;99.90;;;;;;4960911;28;90184;-30
2023/10/18 00:49:14;;;;;;;21.35;14.80;;;5.10;99.90;;;;;;4961035;28;88240;-31
2023/10/18 00:51:46;;;;;;;21.00;12.55;;;5.10;99.90;;;;;;4961787;28;89569;-31
2023/10/18 00:54:12;;;;;;;22.27;11.88;;;5.10;99.90;;;;;;4961256;28;90038;-32
2023/10/18 00:56:50;;;;;;;17.08;9.95;;;5.00;99.90;;;;;;4960271;28;90039;-31
2023/10/18 00:59:21;;;;;;;16.83;10.75;;;5.00;99.90;;;;;;4961962;28;89280;-29
2023/10/18 01:01:58;;;;;;;24.65;12.13;;;5.00;99.90;;;;;;4959989;28;87555;-33
2023/10/18 01:04:26;;;;;;;25.73;11.43;;;4.90;99.90;;;;;;4961339;28;90351;-33
2023/10/18 01:06:52;;;;;;;17.85;12.30;;;4.90;99.90;;;;;;4959551;28;89520;-32
2023/10/18 01:09:18;;;;;;;21.67;13.77;;;4.90;99.90;;;;;;4961615;28;87594;-31
2023/10/18 01:11:46;;;;;;;19.42;11.45;;;4.90;99.90;;;;;;4959884;28;88513;-33
2023/10/18 01:14:18;;;;;;;21.45;12.85;;;4.80;99.90;;;;;;4961520;28;90001;-33
2023/10/18 01:16:46;;;;;;;20.70;14.00;;;4.80;99.90;;;;;;4960430;28;88742;-30
2023/10/18 01:19:14;;;;;;;21.42;12.57;;;4.90;99.90;;;;;;4961844;28;89464;-33
2023/10/18 01:21:45;;;;;;;21.42;14.15;;;4.80;99.90;;;;;;4960677;28;90085;-32
2023/10/18 01:24:14;;;;;;;23.80;14.70;;;4.80;99.90;;;;;;4961106;28;90170;-34
2023/10/18 01:26:39;;;;;;;;;;;4.90;99.90;;;;;;4960695;28;90035;-34
2023/10/18 01:29:08;;;;;;;19.17;13.00;;;4.90;99.90;;;;;;4963671;28;89853;-32
2023/10/18 01:31:33;;;;;;;;;;;4.90;99.90;;;;;;4960552;28;88681;-32
2023/10/18 01:33:59;;;;;;;21.77;15.38;;;4.90;99.90;;;;;;4962729;28;90455;-33
2023/10/18 01:36:31;;;;;;;18.65;12.38;;;4.90;99.90;;;;;;4959778;28;89996;-32
2023/10/18 01:38:58;;;;;;;20.10;13.48;;;4.90;99.90;;;;;;4961608;28;89561;-32
2023/10/18 01:41:34;;;;;;;24.23;12.93;;;4.90;99.90;;;;;;4960807;28;88131;-33
2023/10/18 01:44:08;;;;;;;23.60;14.93;;;4.90;99.90;;;;;;4959948;28;90593;-32
2023/10/18 01:46:34;;;;;;;25.33;11.95;;;4.80;99.90;;;;;;4952307;28;89460;-33
2023/10/18 01:49:01;;;;;;;23.33;13.35;;;4.80;99.90;;;;;;4955785;28;88837;-33
2023/10/18 01:51:27;;;;;;;21.45;12.68;;;5.00;99.90;;;;;;4961003;28;89151;-33
2023/10/18 01:53:55;;;;;;;30.08;15.43;;;5.10;99.90;;;;;;4960450;28;90268;-31
2023/10/18 01:56:21;;;;;;;20.42;12.57;;;5.20;99.90;;;;;;4960978;28;90653;-30
2023/10/18 01:58:48;;;;;;;21.05;11.35;;;5.10;99.90;;;;;;4959365;28;88664;-33
2023/10/18 02:01:16;;;;;;;23.13;13.98;;;5.10;99.90;;;;;;4950631;28;89515;-29
2023/10/18 02:03:44;;;;;;;26.98;13.23;;;5.10;99.90;;;;;;4941747;28;90044;-30
2023/10/18 02:06:10;;;;;;;22.25;13.18;;;5.10;99.90;;;;;;4941830;28;89507;-32
2023/10/18 02:08:36;;;;;;;26.98;16.83;;;5.00;99.90;;;;;;4940891;28;87880;-31
2023/10/18 02:11:06;;;;;;;23.83;13.82;;;5.00;99.90;;;;;;4949616;28;89895;-30
2023/10/18 02:13:32;;;;;;;21.67;13.38;;;5.00;99.90;;;;;;4957949;28;91934;-30
2023/10/18 02:15:57;;;;;;;25.27;14.43;;;5.00;99.90;;;;;;4948929;28;89900;-32
2023/10/18 02:18:24;;;;;;;27.83;15.35;;;4.90;99.90;;;;;;4960513;28;88779;-30
2023/10/18 02:20:53;;;;;;;26.15;13.48;;;4.90;99.90;;;;;;4960953;28;89148;-31
2023/10/18 02:23:21;;;;;;;26.40;14.57;;;5.00;99.90;;;;;;4956684;28;91735;-30
2023/10/18 02:25:47;;;;;;;22.58;13.25;;;4.90;99.90;;;;;;4940594;28;89513;-31
2023/10/18 02:28:24;;;;;;;19.75;14.57;;;4.90;99.90;;;;;;4944051;28;88774;-31
2023/10/18 02:31:24;;;;;;;25.08;15.27;;;5.00;99.90;;;;;;4961283;28;89461;-30
2023/10/18 02:33:42;;;;;;;24.70;13.43;;;5.00;99.90;;;;;;4939673;28;90513;-31
2023/10/18 02:36:12;;;;;;;22.63;16.80;;;5.00;99.90;;;;;;4940952;28;89345;-31
2023/10/18 02:38:41;;;;;;;22.17;13.27;;;5.00;99.90;;;;;;4950905;28;88210;-32
2023/10/18 02:43:55;;;;;;;21.70;12.88;;;4.90;99.90;;;;;;4959081;28;90421;-33
2023/10/18 02:46:25;;;;;;;23.05;13.30;;;4.80;99.90;;;;;;4959652;28;89443;-31
2023/10/18 02:48:55;;;;;;;19.52;13.85;;;4.90;99.90;;;;;;4958443;28;89837;-33
2023/10/18 02:51:24;;;;;;;22.13;13.32;;;4.90;99.90;;;;;;4951241;28;89073;-31
2023/10/18 02:53:53;;;;;;;31.35;15.80;;;4.90;99.90;;;;;;4939986;28;90887;-33
2023/10/18 02:56:26;;;;;;;17.30;10.10;;;4.90;99.90;;;;;;4940484;28;89479;-32
2023/10/18 02:58:55;;;;;;;24.05;13.95;;;5.00;99.90;;;;;;4944335;28;88149;-30
2023/10/18 03:01:21;;;;;;;22.98;14.15;;;5.00;99.90;;;;;;4960130;28;89091;-32
2023/10/18 03:03:54;;;;;;;29.27;12.18;;;5.10;99.90;;;;;;4958506;28;90339;-31
2023/10/18 03:06:24;;;;;;;21.33;13.82;;;5.00;99.90;;;;;;4960554;28;87861;-30
2023/10/18 03:08:50;;;;;;;28.55;14.45;;;5.00;99.90;;;;;;4959407;28;89703;-32
2023/10/18 03:11:21;;;;;;;19.20;11.57;;;4.90;99.90;;;;;;4959576;28;87611;-33
2023/10/18 03:13:48;;;;;;;25.05;13.65;;;4.90;99.90;;;;;;4954730;28;90309;-32
2023/10/18 03:18:44;;;;;;;23.92;14.77;;;4.80;99.90;;;;;;4946962;28;87490;-31
2023/10/18 03:21:13;;;;;;;21.45;13.23;;;4.70;99.90;;;;;;4948496;28;88370;-32
2023/10/18 03:23:44;;;;;;;19.30;11.80;;;4.70;99.90;;;;;;4937783;28;90029;-31
2023/10/18 03:26:11;;;;;;;23.02;13.02;;;4.80;99.90;;;;;;4951789;28;90438;-32
2023/10/18 03:28:43;;;;;;;24.65;12.32;;;4.80;99.90;;;;;;4940445;28;89154;-32
2023/10/18 03:31:28;;;;;;;21.77;13.85;;;4.80;99.90;;;;;;4941199;28;87542;-32
2023/10/18 03:34:04;;;;;;;22.70;13.25;;;4.90;99.90;;;;;;4939727;28;90778;-32
2023/10/18 03:36:32;;;;;;;18.10;12.00;;;4.90;99.90;;;;;;4939217;28;90407;-33
2023/10/18 03:39:15;;;;;;;21.70;13.75;;;5.00;99.90;;;;;;4945188;28;87660;-30
2023/10/18 03:41:41;;;;;;;24.00;15.77;;;5.00;99.90;;;;;;4940389;28;89089;-32
2023/10/18 03:44:08;;;;;;;17.25;13.73;;;5.10;99.90;;;;;;4941157;28;90356;-33
2023/10/18 03:46:47;;;;;;;27.67;15.32;;;5.10;99.90;;;;;;4940327;28;90030;-31
2023/10/18 03:51:57;;;;;;;21.42;13.23;;;4.90;99.90;;;;;;4939774;28;88659;-30
2023/10/18 03:54:27;;;;;;;25.77;14.52;;;5.00;99.90;;;;;;4947238;28;90531;-33
2023/10/18 03:56:54;;;;;;;24.02;12.95;;;5.10;99.90;;;;;;4958550;28;89537;-32
2023/10/18 03:59:23;;;;;;;23.95;13.23;;;5.10;99.90;;;;;;4961001;28;88182;-31
2023/10/18 04:02:27;;;;;;;26.00;14.30;;;5.10;99.90;;;;;;4962106;28;88766;-29
2023/10/18 04:04:45;;;;;;;25.92;16.92;;;5.10;99.90;;;;;;4961934;28;90018;-30
2023/10/18 04:07:16;;;;;;;;;;;5.10;99.90;;;;;;4962516;28;89332;-33
2023/10/18 04:09:53;;;;;;;22.83;14.82;;;5.10;99.90;;;;;;4964543;28;88913;-31
2023/10/18 04:12:21;;;;;;;21.67;11.02;;;5.10;99.90;;;;;;4962743;28;89603;-33
2023/10/18 04:14:52;;;;;;;27.40;17.20;;;5.10;99.90;;;;;;4950594;28;89331;-32
2023/10/18 04:22:46;;;;;;;;;;;5.20;99.90;;;;;;4943161;28;88448;-31
2023/10/18 04:25:30;;;;;;;27.02;14.60;;;5.10;99.90;;;;;;4958196;28;90421;-29
2023/10/18 04:27:59;;;;;;;26.75;15.00;;;5.10;99.90;;;;;;4941932;28;89390;-31
2023/10/18 04:30:25;;;;;;;24.20;14.65;;;5.20;99.90;;;;;;4942467;28;89517;-34
2023/10/18 04:32:59;;;;;;;25.00;14.35;;;5.20;99.90;;;;;;4943009;28;88303;-32
2023/10/18 04:35:29;;;;;;;27.45;14.95;;;5.20;99.90;;;;;;4942952;28;89899;-33
2023/10/18 04:37:57;;;;;;;21.67;13.85;;;5.20;99.90;;;;;;4945616;28;90026;-32
2023/10/18 04:40:25;;;;;;;25.83;14.10;;;5.20;99.90;;;;;;4950940;28;88102;-31
2023/10/18 04:42:51;;;;;;;33.93;16.47;;;5.20;99.90;;;;;;4947418;28;89318;-32
2023/10/18 04:45:18;;;;;;;20.85;13.65;;;5.20;99.90;;;;;;4962306;28;88168;-33
2023/10/18 04:47:49;;;;;;;22.08;14.82;;;5.20;99.90;;;;;;4961099;28;89174;-30
2023/10/18 04:50:22;;;;;;;24.27;13.70;;;5.20;99.90;;;;;;4961682;28;88832;-32
2023/10/18 04:52:47;;;;;;;23.23;15.15;;;5.20;99.90;;;;;;4950018;28;89577;-30
2023/10/18 04:55:14;;;;;;;20.88;14.68;;;5.20;99.90;;;;;;4941863;28;90310;-31
2023/10/18 04:57:46;;;;;;;25.30;14.90;;;5.20;99.90;;;;;;4942872;28;89914;-32
2023/10/18 05:00:25;;;;;;;21.52;15.68;;;5.20;99.90;;;;;;4956335;28;89364;-29
2023/10/18 05:02:58;;;;;;;21.75;13.38;;;5.20;99.90;;;;;;4961143;28;87677;-30
2023/10/18 05:05:27;;;;;;;30.20;15.23;;;5.20;99.90;;;;;;4958896;28;90849;-31
2023/10/18 05:07:55;;;;;;;29.10;17.20;;;5.20;99.90;;;;;;4960484;28;91671;-31
2023/10/18 05:10:22;;;;;;;19.83;12.00;;;5.20;99.90;;;;;;4959503;28;89106;-31
2023/10/18 05:13:01;;;;;;;18.50;12.60;;;5.20;99.90;;;;;;4961177;28;88874;-34
2023/10/18 05:15:31;;;;;;;20.38;10.45;;;5.10;99.90;;;;;;4961216;28;89804;-33
2023/10/18 05:17:59;;;;;;;25.02;12.77;;;5.10;99.90;;;;;;4960915;28;89633;-32
2023/10/18 05:20:41;;;;;;;27.27;15.57;;;5.20;99.90;;;;;;4948249;28;87875;-33
2023/10/18 05:23:07;;;;;;;23.08;13.27;;;5.20;99.90;;;;;;4947917;28;88010;-30
2023/10/18 05:25:34;;;;;;;25.23;15.68;;;5.20;99.90;;;;;;4961478;28;90175;-35
2023/10/18 05:28:00;;;;;;;22.70;14.25;;;5.20;99.90;;;;;;4959226;28;90046;-33
2023/10/18 05:41:28;;;;;;;23.02;14.27;;;5.20;99.90;;;;;;4940966;28;89606;-33
2023/10/18 05:44:00;;;;;;;18.58;12.75;;;5.20;99.90;;;;;;4954734;28;91410;-30
2023/10/18 05:46:27;;;;;;;17.55;10.32;;;5.20;99.90;;;;;;4950708;28;89750;-29
2023/10/18 05:48:55;;;;;;;23.63;13.77;;;5.20;99.90;;;;;;4998144;22;90043;-30
2023/10/18 05:53:59;;;;;;;23.42;13.50;;;5.20;99.90;;;;;;4962314;28;88239;-31
2023/10/18 05:56:29;;;;;;;25.60;12.50;;;5.20;99.90;;;;;;4981238;28;89812;-31
2023/10/18 06:01:44;;;;;;;;;;;5.30;99.90;;;;;;4975763;28;89115;-31
2023/10/18 06:04:10;;;;;;;21.92;12.27;;;5.30;99.90;;;;;;4972030;28;87899;-31
2023/10/18 06:06:37;;;;;;;27.25;16.75;;;5.30;99.90;;;;;;4967622;28;90785;-33
2023/10/18 06:09:11;;;;;;;19.90;12.43;;;5.30;99.90;;;;;;4961797;28;89578;-30
2023/10/18 06:11:37;;;;;;;26.92;16.58;;;5.30;99.90;;;;;;4974153;28;89255;-33
2023/10/18 06:14:08;;;;;;;21.55;12.32;;;5.30;99.90;;;;;;4961196;28;89452;-32
2023/10/18 06:16:34;;;;;;;24.02;14.85;;;5.30;99.90;;;;;;4969896;28;89214;-31
2023/10/18 06:19:05;;;;;;;19.25;13.82;;;5.30;99.90;;;;;;4972075;28;89268;-32
2023/10/18 06:21:36;;;;;;;29.10;17.05;;;5.30;99.90;;;;;;4974212;28;88783;-32
2023/10/18 06:24:11;;;;;;;22.33;14.77;;;5.40;99.90;;;;;;4964241;28;87963;-33
2023/10/18 06:26:40;;;;;;;14.82;10.00;;;5.40;99.90;;;;;;4964236;28;90063;-33
2023/10/18 06:29:08;;;;;;;24.27;13.95;;;5.40;99.90;;;;;;4962681;28;89228;-32
2023/10/18 06:31:46;;;;;;;23.25;14.05;;;5.40;99.90;;;;;;4964857;28;90127;-33
2023/10/18 06:34:17;;;;;;;37.47;15.32;;;5.40;99.90;;;;;;4970098;28;87667;-34
2023/10/18 06:36:52;;;;;;;23.15;13.43;;;5.40;99.90;;;;;;4963503;28;90263;-31
2023/10/18 06:39:37;;;;;;;15.60;11.63;;;5.40;99.90;;;;;;4963784;28;89338;-33
2023/10/18 06:42:12;;;;;;;22.67;14.32;;;5.40;99.90;;;;;;4971015;28;88447;-32
2023/10/18 06:44:40;;;;;;;22.83;14.48;;;5.50;99.90;;;;;;4976523;28;89113;-31
2023/10/18 06:47:06;;;;;;;21.55;10.35;;;5.50;99.90;;;;;;4975834;28;89629;-32
2023/10/18 06:49:32;;;;;;;18.75;12.00;;;5.50;99.90;;;;;;4964179;28;89688;-33
2023/10/18 06:52:00;;;;;;;19.63;12.57;;;5.50;99.90;;;;;;4962475;28;88989;-30
2023/10/18 06:54:31;;;;;;;21.42;12.93;;;5.50;99.90;;;;;;4957618;28;87940;-32
2023/10/18 06:59:55;;;;;;;30.40;13.52;;;5.50;99.90;;;;;;4971438;28;89074;-28
2023/10/18 07:02:27;;;;;;;28.70;13.95;;;5.50;99.90;;;;;;4976144;28;88760;-33
2023/10/18 07:04:56;;;;;;;23.30;12.30;;;5.60;99.90;;;;;;4975367;28;90278;-32
2023/10/18 07:07:23;;;;;;;17.98;10.73;;;5.70;99.90;;;;;;4967452;28;90042;-31
2023/10/18 07:09:52;;;;;;;22.45;13.80;;;5.70;99.90;;;;;;4975230;28;88436;-33
2023/10/18 07:12:26;;;;;;;22.95;12.35;;;5.70;99.90;;;;;;4972795;28;89038;-29
2023/10/18 07:14:55;;;;;;;17.33;13.93;;;5.80;99.90;;;;;;4957153;28;88675;-32
2023/10/18 07:17:24;;;;;;;17.30;11.30;;;5.80;99.90;;;;;;4957220;28;90062;-33
2023/10/18 07:19:55;;;;;;;24.50;13.07;;;5.80;99.90;;;;;;4963487;28;89144;-30
2023/10/18 07:22:27;;;;;;;21.35;12.32;;;5.90;99.90;;;;;;4957209;28;88400;-31
2023/10/18 07:24:59;;;;;;;21.45;12.80;;;5.90;99.90;;;;;;4957023;28;90285;-31
2023/10/18 07:27:29;;;;;;;21.60;12.63;;;5.90;99.90;;;;;;4968183;28;88377;-32
2023/10/18 07:29:58;;;;;;;24.05;13.38;;;6.00;99.90;;;;;;4977543;28;90193;-32
2023/10/18 07:32:24;;;;;;;13.98;10.77;;;6.10;99.90;;;;;;4976625;28;89249;-31
2023/10/18 07:34:54;;;;;;;23.27;14.80;;;6.10;99.90;;;;;;4975773;28;88537;-32
2023/10/18 07:37:41;;;;;;;21.58;11.77;;;6.10;99.90;;;;;;4976693;28;91013;-31
2023/10/18 07:40:11;;;;;;;15.45;9.98;;;6.20;99.90;;;;;;4976344;28;89912;-32
2023/10/18 07:42:43;;;;;;;22.17;13.90;;;6.20;99.90;;;;;;4976804;28;89105;-30
2023/10/18 07:45:21;;;;;;;24.17;13.05;;;6.20;99.90;;;;;;4977047;28;90127;-32
2023/10/18 07:47:53;;;;;;;15.15;11.93;;;6.30;99.90;;;;;;4973305;28;89882;-32
2023/10/18 07:53:05;;;;;;;14.85;11.55;;;6.40;99.90;;;;;;4961629;28;89921;-32
2023/10/18 07:55:36;;;;;;;30.15;14.43;;;6.40;99.90;;;;;;4975817;28;89115;-31
2023/10/18 07:58:22;;;;;;;21.25;13.55;;;6.50;99.90;;;;;;4976049;28;90471;-30
2023/10/18 08:01:09;;;;;;;23.58;12.98;;;6.50;99.90;;;;;;4975121;28;89890;-29
2023/10/18 08:03:35;;;;;;;17.63;11.10;;;6.60;99.90;;;;;;4973882;28;88930;-33
2023/10/18 08:06:06;;;;;;;26.30;12.27;;;6.60;99.90;;;;;;4976258;28;89939;-33
2023/10/18 08:08:32;;;;;;;21.63;14.52;;;6.60;99.90;;;;;;4973572;28;90830;-33
2023/10/18 08:10:59;;;;;;;17.13;13.05;;;6.70;99.90;;;;;;4969421;28;90545;-31
2023/10/18 08:13:28;;;;;;;16.58;10.45;;;6.70;99.90;;;;;;4970428;28;89546;-31
2023/10/18 08:16:01;;;;;;;19.25;11.63;;;6.70;99.90;;;;;;4959279;28;88998;-31
2023/10/18 08:18:42;;;;;;;22.95;13.02;;;6.80;99.90;;;;;;4958606;28;89640;-32
2023/10/18 08:21:25;;;;;;;20.85;13.43;;;6.80;99.90;;;;;;4970778;28;91327;-32
2023/10/18 08:23:56;;;;;;;21.67;13.07;;;6.90;99.90;;;;;;4978560;28;89234;-32
2023/10/18 08:26:26;;;;;;;22.77;13.13;;;6.90;99.90;;;;;;4978192;28;89569;-34
2023/10/18 08:28:53;;;;;;;19.60;10.73;;;6.90;99.90;;;;;;4978221;28;91049;-31
2023/10/18 08:33:46;;;;;;;20.73;13.63;;;7.10;99.90;;;;;;4978544;28;88926;-31
2023/10/18 08:36:13;;;;;;;16.17;9.35;;;7.10;99.90;;;;;;4977431;28;88319;-31
2023/10/18 08:38:41;;;;;;;15.35;10.70;;;7.20;99.90;;;;;;4979344;28;89872;-33
2023/10/18 08:41:13;;;;;;;24.97;12.40;;;7.20;99.90;;;;;;4978689;28;89155;-32
2023/10/18 08:43:52;;;;;;;14.68;10.80;;;7.20;99.90;;;;;;4968543;28;88350;-32
2023/10/18 08:46:24;;;;;;;20.33;12.57;;;7.30;99.90;;;;;;4960437;28;88332;-33
2023/10/18 08:48:53;;;;;;;19.27;10.95;;;7.40;99.90;;;;;;4960597;28;90025;-32
2023/10/18 08:51:21;;;;;;;16.20;11.32;;;7.50;99.90;;;;;;4961955;28;88848;-31
2023/10/18 08:53:49;;;;;;;17.30;10.18;;;7.50;99.90;;;;;;4975193;28;88046;-32
2023/10/18 08:56:17;;;;;;;14.52;10.05;;;7.50;99.90;;;;;;4982358;28;89055;-31
2023/10/18 08:58:47;;;;;;;14.88;11.98;;;7.60;99.90;;;;;;4981518;28;90062;-31
2023/10/18 09:01:14;;;;;;;14.57;10.20;;;7.70;99.90;;;;;;4982160;28;90455;-31
2023/10/18 09:03:39;;;;;;;18.38;9.70;;;7.70;99.90;;;;;;4981160;28;89737;-31
2023/10/18 09:06:06;;;;;;;17.88;11.43;;;7.80;99.90;;;;;;4982302;28;87801;-32
2023/10/18 09:08:38;;;;;;;20.05;11.90;;;7.80;99.90;;;;;;4981178;28;89364;-30
2023/10/18 09:11:09;;;;;;;14.43;9.75;;;7.90;99.90;;;;;;4981085;28;89449;-33
2023/10/18 09:13:42;;;;;;;15.10;9.93;;;7.90;99.90;;;;;;4966591;28;89190;-32
2023/10/18 09:16:19;;;;;;;13.15;9.63;;;8.00;99.90;;;;;;4963697;28;88514;-30
2023/10/18 09:18:48;;;;;;;15.40;9.30;;;8.10;99.90;;;;;;4962029;28;88846;-33
2023/10/18 09:23:43;;;;;;;17.50;11.75;;;8.20;99.90;;;;;;4976136;28;87658;-31
2023/10/18 09:26:11;;;;;;;19.60;9.02;;;8.30;99.90;;;;;;4975253;28;88037;-29
2023/10/18 09:28:37;;;;;;;16.20;10.43;;;8.30;99.90;;;;;;4981449;28;90221;-32
2023/10/18 09:31:18;;;;;;;15.45;8.80;;;8.40;99.90;;;;;;4979250;28;89200;-31
2023/10/18 09:33:51;;;;;;;15.50;8.88;;;8.50;99.90;;;;;;4981309;28;88185;-32
2023/10/18 09:36:19;;;;;;;15.75;9.18;;;8.50;99.90;;;;;;4981422;28;87596;-32
2023/10/18 09:38:46;;;;;;;;;;;8.50;99.90;;;;;;4981396;28;90042;-31
2023/10/18 09:41:12;;;;;;;16.15;8.68;;;8.60;99.90;;;;;;4981459;28;89460;-31
2023/10/18 09:43:38;;;;;;;12.32;8.23;;;8.60;99.90;;;;;;4984550;28;89926;-33
2023/10/18 09:46:10;;;;;;;17.30;7.90;;;8.60;99.90;;;;;;4981602;28;88929;-31
2023/10/18 09:48:41;;;;;;;17.02;10.75;;;8.70;99.90;;;;;;4982110;28;90926;-32
2023/10/18 09:51:08;;;;;;;11.57;6.78;;;8.70;99.90;;;;;;4968706;28;89068;-30
2023/10/18 09:53:43;;;;;;;12.65;8.85;;;8.80;99.90;;;;;;4981926;28;88767;-32
2023/10/18 09:56:17;;;;;;;14.02;9.35;;;8.90;99.90;;;;;;4970551;28;87528;-32
2023/10/18 09:58:46;;;;;;;20.42;10.85;;;8.90;99.90;;;;;;4964087;28;89870;-33
2023/10/18 10:01:14;;;;;;;14.85;10.43;;;9.00;99.90;;;;;;4961333;28;89215;-30
2023/10/18 10:03:52;;;;;;;13.70;8.67;;;9.00;99.90;;;;;;4977695;28;88153;-32
2023/10/18 10:06:23;;;;;;;18.20;10.10;;;9.00;99.90;;;;;;4968671;28;87905;-32
2023/10/18 10:11:46;;;;;;;;;;;9.10;99.90;;;;;;4975669;28;88718;-30
2023/10/18 10:14:16;;;;;;;11.73;9.32;;;9.20;99.90;;;;;;4982660;28;89723;-33
2023/10/18 10:17:00;;;;;;;11.88;7.95;;;9.20;99.90;;;;;;4980796;28;88823;-30
2023/10/18 10:19:29;;;;;;;15.95;8.18;;;9.20;99.90;;;;;;4970933;28;88793;-29
2023/10/18 10:21:55;;;;;;;;;;;9.20;99.90;;;;;;4963299;28;91587;-30
2023/10/18 10:24:30;;;;;;;11.98;8.10;;;9.30;99.90;;;;;;4964303;28;88957;-30
2023/10/18 10:30:03;;;;;;;10.13;8.18;;;9.40;99.90;;;;;;4962080;28;89308;-30
2023/10/18 10:32:30;;;;;;;13.43;8.93;;;9.40;99.90;;;;;;4961615;28;90099;-32
2023/10/18 10:35:16;;;;;;;20.83;8.48;;;9.50;99.90;;;;;;4966313;28;88301;-32
2023/10/18 10:37:49;;;;;;;12.65;7.40;;;9.60;99.90;;;;;;4966736;28;89684;-29
2023/10/18 10:43:04;;;;;;;10.45;6.78;;;9.70;99.90;;;;;;4978716;28;89344;-31
2023/10/18 10:46:18;;;;;;;15.52;9.15;;;9.80;99.90;;;;;;4980494;28;87678;-33
2023/10/18 10:51:11;;;;;;;;;;;9.80;99.90;;;;;;4980495;28;90339;-32
2023/10/18 10:53:45;;;;;;;15.65;9.00;;;9.90;99.90;;;;;;4980332;28;89519;-31
2023/10/18 10:56:36;;;;;;;14.50;8.88;;;10.00;99.90;;;;;;4980606;28;88747;-33
2023/10/18 11:01:39;;;;;;;11.45;7.85;;;10.10;99.90;;;;;;4979924;28;90495;-32
2023/10/18 11:04:46;;;;;;;12.52;7.88;;;10.00;99.90;;;;;;4968088;28;89232;-33
2023/10/18 11:07:21;;;;;;;13.15;7.65;;;10.10;99.90;;;;;;4968110;28;88076;-31
2023/10/18 11:09:47;;;;;;;10.93;8.35;;;10.20;99.90;;;;;;4980147;28;87619;-33
2023/10/18 11:12:17;;;;;;;12.32;8.15;;;10.20;99.90;;;;;;4980226;28;89910;-30
2023/10/18 11:14:50;;;;;;;9.32;6.45;;;10.20;99.90;;;;;;4979916;28;89759;-32
2023/10/18 11:19:51;;;;;;;10.20;7.22;;;10.30;99.90;;;;;;4979906;28;88431;-32
2023/10/18 11:22:21;;;;;;;12.57;8.23;;;10.30;99.90;;;;;;4980551;28;90101;-31
2023/10/18 11:24:50;;;;;;;8.80;7.80;;;10.40;99.90;;;;;;4979172;28;90760;-33
2023/10/18 11:27:18;;;;;;;15.02;9.85;;;10.40;99.90;;;;;;4980081;28;90332;-34
2023/10/18 11:29:45;;;;;;;10.48;7.32;;;10.50;99.90;;;;;;4975402;28;89576;-34
2023/10/18 11:32:27;;;;;;;11.50;8.07;;;10.50;99.90;;;;;;4973479;28;88375;-34
2023/10/18 11:35:04;;;;;;;11.43;7.53;;;10.50;99.90;;;;;;4977162;28;89492;-32
2023/10/18 11:37:37;;;;;;;13.50;8.47;;;10.50;99.90;;;;;;4978531;28;88125;-31
2023/10/18 11:40:21;;;;;;;9.73;7.10;;;10.50;99.90;;;;;;4976804;28;88656;-31
2023/10/18 11:43:04;;;;;;;9.70;7.53;;;10.60;99.90;;;;;;4977444;28;91677;-31
2023/10/18 11:45:30;;;;;;;12.98;6.03;;;10.60;99.90;;;;;;4978152;28;89322;-34
2023/10/18 11:47:56;;;;;;;7.82;5.35;;;10.70;99.90;;;;;;4977443;28;89582;-32
2023/10/18 11:50:23;;;;;;;11.45;7.68;;;10.70;99.90;;;;;;4992460;28;89648;-32
2023/10/18 11:52:51;;;;;;;11.37;5.87;;;10.70;99.90;;;;;;4974794;28;90446;-31
2023/10/18 11:55:17;;;;;;;16.02;9.07;;;10.80;99.90;;;;;;4974278;28;89504;-30
2023/10/18 11:57:46;;;;;;;13.85;8.20;;;10.80;99.90;;;;;;4976416;28;88491;-31
2023/10/18 12:02:47;;;;;;;14.38;9.10;;;10.80;99.90;;;;;;4969020;28;90144;-31
2023/10/18 12:05:17;;;;;;;11.73;6.95;;;10.90;99.90;;;;;;4964260;28;90057;-31
2023/10/18 12:07:45;;;;;;;10.88;7.30;;;10.90;99.90;;;;;;4962091;28;89393;-32
2023/10/18 12:10:17;;;;;;;14.10;8.23;;;11.00;99.90;;;;;;4965493;28;87567;-33
2023/10/18 12:12:43;;;;;;;8.13;6.25;;;11.00;99.90;;;;;;4977787;28;88982;-32
2023/10/18 12:15:09;;;;;;;9.15;6.93;;;11.00;99.90;;;;;;4975416;28;89835;-33
2023/10/18 12:17:34;;;;;;;12.68;8.10;;;11.00;99.90;;;;;;4977789;28;88801;-31
2023/10/18 12:20:00;;;;;;;13.57;7.90;;;11.10;99.90;;;;;;4976919;28;87856;-32
2023/10/18 12:22:26;;;;;;;20.60;7.00;;;11.10;99.90;;;;;;4980628;28;90639;-32
2023/10/18 12:24:52;;;;;;;13.48;9.48;;;11.10;99.90;;;;;;4980095;28;89985;-30
2023/10/18 12:27:36;;;;;;;12.88;9.02;;;11.10;99.90;;;;;;4972099;28;89903;-32
2023/10/18 12:30:27;;;;;;;16.50;11.82;;;11.10;99.90;;;;;;4965427;28;89714;-31
2023/10/18 12:32:53;;;;;;;7.50;6.28;;;11.20;99.90;;;;;;4965152;28;89880;-33
2023/10/18 12:35:22;;;;;;;10.60;7.57;;;11.10;99.90;;;;;;4980871;28;89093;-30
2023/10/18 12:37:51;;;;;;;;;;;11.20;99.90;;;;;;4980558;28;88343;-31
2023/10/18 12:40:28;;;;;;;11.98;7.85;;;11.20;99.90;;;;;;4982003;28;88551;-32
2023/10/18 12:43:01;;;;;;;9.93;7.97;;;11.20;99.90;;;;;;4961229;28;89804;-32
2023/10/18 12:45:29;;;;;;;11.95;7.90;;;11.10;99.90;;;;;;4971107;28;89453;-31
2023/10/18 12:47:55;;;;;;;;;;;11.20;99.90;;;;;;4980335;28;88881;-31
2023/10/18 12:50:26;;;;;;;14.98;7.32;;;11.10;99.90;;;;;;4982045;28;88986;-34
2023/10/18 12:52:53;;;;;;;9.13;6.75;;;11.10;99.90;;;;;;4978467;28;89584;-32
2023/10/18 12:55:36;;;;;;;12.57;9.30;;;11.10;99.90;;;;;;4980585;28;89551;-32
2023/10/18 12:58:08;;;;;;;13.43;7.82;;;11.10;99.90;;;;;;4980171;28;89859;-32
2023/10/18 13:00:42;;;;;;;9.27;8.00;;;11.10;99.90;;;;;;4978728;28;90003;-30
2023/10/18 13:05:40;;;;;;;11.13;7.18;;;11.20;99.90;;;;;;4978169;28;90174;-33
2023/10/18 13:08:17;;;;;;;10.48;8.27;;;11.10;99.90;;;;;;4979492;28;88025;-32
2023/10/18 13:11:18;;;;;;;12.70;7.32;;;11.20;99.90;;;;;;4975529;28;88935;-33
2023/10/18 13:13:45;;;;;;;20.88;9.40;;;11.10;99.90;;;;;;4962804;28;91004;-33
2023/10/18 13:16:14;;;;;;;12.52;9.15;;;11.20;99.90;;;;;;4960709;28;88437;-31
2023/10/18 13:18:41;;;;;;;15.23;8.50;;;11.10;99.90;;;;;;4958668;28;87621;-32
2023/10/18 13:21:09;;;;;;;12.68;8.20;;;11.20;99.90;;;;;;4960540;28;87901;-32
2023/10/18 13:23:36;;;;;;;14.05;7.25;;;11.20;99.90;;;;;;4960191;28;89768;-30
2023/10/18 13:26:03;;;;;;;12.45;8.15;;;11.20;99.90;;;;;;4961113;28;90007;-32
2023/10/18 13:28:34;;;;;;;12.77;8.75;;;11.20;99.90;;;;;;4960890;28;88921;-31
2023/10/18 13:31:06;;;;;;;11.57;8.20;;;11.20;99.90;;;;;;4960050;28;89901;-33
2023/10/18 13:33:33;;;;;;;6.90;5.75;;;11.20;99.90;;;;;;4959801;28;89952;-32
2023/10/18 13:36:01;;;;;;;11.38;8.45;;;11.30;99.90;;;;;;4961158;28;89627;-32
2023/10/18 13:38:28;;;;;;;11.27;7.60;;;11.30;99.90;;;;;;4968347;28;89108;-33
2023/10/18 13:40:54;;;;;;;13.60;9.40;;;11.30;99.90;;;;;;4963478;28;88667;-32
2023/10/18 13:43:19;;;;;;;10.75;7.97;;;11.40;99.90;;;;;;4968945;28;89972;-32
2023/10/18 13:45:46;;;;;;;11.70;8.15;;;11.40;99.90;;;;;;4965818;28;90033;-30
2023/10/18 13:48:12;;;;;;;8.15;6.70;;;11.40;99.90;;;;;;4971230;28;89296;-33
2023/10/18 13:50:38;;;;;;;11.10;6.97;;;11.30;99.90;;;;;;4960640;28;89142;-33
2023/10/18 13:53:06;;;;;;;10.63;6.60;;;11.40;99.90;;;;;;4958253;28;89708;-32
2023/10/18 13:55:32;;;;;;;15.68;9.13;;;11.40;99.90;;;;;;4959740;28;89645;-34
2023/10/18 13:57:58;;;;;;;11.93;8.25;;;11.40;99.90;;;;;;4967522;28;88543;-33
2023/10/18 14:00:26;;;;;;;12.18;7.97;;;11.40;99.90;;;;;;4963202;28;88677;-30
2023/10/18 14:02:55;;;;;;;;;;;11.40;99.90;;;;;;4968738;28;91041;-29
2023/10/18 14:05:21;;;;;;;;;;;11.30;99.90;;;;;;4961356;28;88917;-32